Shuckone — WDE4969 — position and weather

sailwx.info

Track history (hours):
 
Tides and Currents Weather Stations Pressure Air Temp Water Temp Dewpoint Dewpoint Depression Visibility Wind Speed Wind Dir Waves Ship Positions

Shuckone

Owner: Shuckone LLC, North Cape May, NJ. More information available from US FCC via Universal Licensing System and Coast Guard Vessel Documentation Center.

Last reported at 2018-Jun-21 10:28 UTC. Time now 2018-Jun-21 18:11 UTC.
Position N 39°13' W 075°02'.

Length 22 m.

Type: Fishing. MMSI: 367360320.

Date/timePositionNaut miles runAvg speedWind from/ knotsBaromVisibWave heightAir tempDewpointWater temp
2018-Jun-21 10:28N 39°13' W 075°02'11 0.6
2018-Jun-20 16:19N 39°14' W 075°16'1 1.4
2018-Jun-20 15:51N 39°14' W 075°17'0 0.0
2018-Jun-20 15:30N 39°14' W 075°17'12 0.2
2018-Jun-18 11:50N 39°14' W 075°01'2 4.0
2018-Jun-18 11:25N 39°13' W 075°02'  
2018-Jun-15 07:20N 39°14' W 075°01'0 0.0
2018-Jun-15 06:59N 39°14' W 075°01'0 0.0
2018-Jun-15 06:14N 39°14' W 075°01'0 0.0
2018-Jun-15 05:59N 39°14' W 075°01'0 0.0
2018-Jun-15 05:26N 39°14' W 075°01'0 0.0
2018-Jun-15 04:59N 39°14' W 075°01'0 0.0
2018-Jun-15 04:29N 39°14' W 075°01'0 0.0
2018-Jun-15 03:53N 39°14' W 075°01'0 0.0
2018-Jun-15 01:29N 39°14' W 075°01'9 0.3
2018-Jun-13 16:43N 39°10' W 075°11'5 0.2
2018-Jun-12 11:06N 39°09' W 075°05'1 7.6
2018-Jun-12 10:57N 39°10' W 075°04'  
Track history (hours):
 
Tides and Currents Weather Stations Pressure Air Temp Water Temp Dewpoint Dewpoint Depression Visibility Wind Speed Wind Dir Waves Ship Positions

Shuckone

Owner: Shuckone LLC, North Cape May, NJ. More information available from US FCC via Universal Licensing System and Coast Guard Vessel Documentation Center.

Last reported at 2018-Jun-21 10:28 UTC. Time now 2018-Jun-21 18:11 UTC.
Position N 39°13' W 075°02'.

Length 22 m.

Type: Fishing. MMSI: 367360320.

Date/timePositionNaut miles runAvg speedWind from/ knotsBaromVisibWave heightAir tempDewpointWater temp
2018-Jun-21 10:28N 39°13' W 075°02'11 0.6
2018-Jun-20 16:19N 39°14' W 075°16'1 1.4
2018-Jun-20 15:51N 39°14' W 075°17'0 0.0
2018-Jun-20 15:30N 39°14' W 075°17'12 0.2
2018-Jun-18 11:50N 39°14' W 075°01'2 4.0
2018-Jun-18 11:25N 39°13' W 075°02'  
2018-Jun-15 07:20N 39°14' W 075°01'0 0.0
2018-Jun-15 06:59N 39°14' W 075°01'0 0.0
2018-Jun-15 06:14N 39°14' W 075°01'0 0.0
2018-Jun-15 05:59N 39°14' W 075°01'0 0.0
2018-Jun-15 05:26N 39°14' W 075°01'0 0.0
2018-Jun-15 04:59N 39°14' W 075°01'0 0.0
2018-Jun-15 04:29N 39°14' W 075°01'0 0.0
2018-Jun-15 03:53N 39°14' W 075°01'0 0.0
2018-Jun-15 01:29N 39°14' W 075°01'9 0.3
2018-Jun-13 16:43N 39°10' W 075°11'5 0.2
2018-Jun-12 11:06N 39°09' W 075°05'1 7.6
2018-Jun-12 10:57N 39°10' W 075°04'  

Dump ship's entire track history